createdAt,value
2023-05-02T06:31:03.787Z,7.20
2023-05-02T06:32:04.867Z,7.25
2023-05-02T06:33:04.921Z,7.47
2023-05-02T06:34:06.020Z,7.25
2023-05-02T06:35:05.029Z,7.41
2023-05-02T06:36:05.106Z,7.41
2023-05-02T06:37:05.166Z,7.41
2023-05-02T06:38:05.257Z,7.41
2023-05-02T06:39:05.354Z,7.41
2023-05-02T06:40:05.469Z,7.36
2023-05-02T06:41:05.503Z,7.41
2023-05-02T06:42:05.572Z,7.47
2023-05-02T06:43:05.696Z,7.41
2023-05-02T06:44:05.711Z,7.41
2023-05-02T06:45:05.776Z,7.41
2023-05-02T06:46:05.832Z,7.47
2023-05-02T06:47:05.929Z,7.41
2023-05-02T06:48:06.029Z,7.41
2023-05-02T06:49:06.063Z,7.36
2023-05-02T06:50:06.163Z,7.41
2023-05-02T06:51:06.255Z,7.47
2023-05-02T06:52:06.378Z,7.41
2023-05-02T06:53:06.449Z,7.47
2023-05-02T06:54:06.484Z,7.41
2023-05-02T06:55:06.589Z,7.41
2023-05-02T06:56:06.669Z,7.41
2023-05-02T06:57:06.767Z,7.41
2023-05-02T06:58:06.855Z,7.41
2023-05-02T06:59:06.906Z,7.36
2023-05-02T07:00:07.018Z,7.36
2023-05-02T07:01:07.150Z,7.41
2023-05-02T07:02:13.329Z,10.69
2023-05-02T07:03:07.241Z,11.87
2023-05-02T07:04:07.349Z,12.08
2023-05-02T07:05:07.391Z,12.68
2023-05-02T07:06:07.497Z,13.00
2023-05-02T07:07:07.576Z,13.21
2023-05-02T07:08:07.629Z,13.43
2023-05-02T07:09:07.702Z,13.80
2023-05-02T07:10:07.772Z,13.96
2023-05-02T07:11:07.876Z,14.18
2023-05-02T07:12:07.931Z,14.56
2023-05-02T07:13:08.011Z,14.56
2023-05-02T07:14:08.095Z,14.77
2023-05-02T07:15:08.198Z,15.15
2023-05-02T07:16:08.303Z,15.15
2023-05-02T07:17:08.379Z,15.15
2023-05-02T07:18:08.493Z,15.36
2023-05-02T07:19:08.531Z,15.31
2023-05-02T07:20:08.589Z,15.58
2023-05-02T07:21:08.664Z,15.52
2023-05-02T07:22:08.737Z,15.52
2023-05-02T07:23:08.820Z,15.95
2023-05-02T07:24:08.901Z,15.95
2023-05-02T07:25:08.976Z,15.90
2023-05-02T07:26:09.051Z,15.95
2023-05-02T07:27:09.138Z,16.17
2023-05-02T07:28:09.213Z,16.17
2023-05-02T07:29:09.285Z,16.17
2023-05-02T07:30:09.352Z,16.11
2023-05-02T07:31:09.444Z,16.11
2023-05-02T07:32:09.656Z,16.49
2023-05-02T07:33:15.889Z,16.49
2023-05-02T07:34:09.678Z,16.70
2023-05-02T07:35:09.738Z,16.54
2023-05-02T07:36:09.812Z,16.49
2023-05-02T07:37:09.888Z,16.49
2023-05-02T07:38:09.976Z,16.65
2023-05-02T07:39:10.040Z,16.54
2023-05-02T07:40:10.129Z,16.70
2023-05-02T07:41:10.183Z,16.70
2023-05-02T07:42:10.257Z,16.70
2023-05-02T07:43:11.284Z,16.70
2023-05-02T07:44:10.677Z,16.70
2023-05-02T07:45:10.481Z,16.70
2023-05-02T07:46:10.678Z,16.87
2023-05-02T07:47:10.639Z,16.92
2023-05-02T07:48:10.758Z,16.92
2023-05-02T07:49:10.792Z,16.92
2023-05-02T07:50:10.873Z,16.92
2023-05-02T07:51:10.952Z,16.92
2023-05-02T07:52:11.014Z,17.29
2023-05-02T07:53:11.109Z,17.29
2023-05-02T07:54:11.170Z,17.24
2023-05-02T07:55:11.238Z,17.29
2023-05-02T07:56:11.312Z,17.29
2023-05-02T07:57:11.385Z,17.29
2023-05-02T07:58:11.474Z,17.29
2023-05-02T07:59:11.580Z,17.29
2023-05-02T08:00:11.634Z,17.40
2023-05-02T08:01:11.709Z,17.24
2023-05-02T08:02:11.849Z,17.35
2023-05-02T08:03:11.915Z,17.35
2023-05-02T08:04:18.613Z,17.56
2023-05-02T08:05:12.128Z,17.51
2023-05-02T08:06:12.111Z,17.51
2023-05-02T08:07:12.183Z,17.51
2023-05-02T08:08:12.307Z,17.51
2023-05-02T08:09:12.386Z,17.51
2023-05-02T08:10:12.461Z,17.51
2023-05-02T08:11:12.530Z,17.46
2023-05-02T08:12:12.616Z,17.51
2023-05-02T08:13:12.705Z,17.51
2023-05-02T08:14:12.774Z,17.51
2023-05-02T08:15:12.862Z,17.51
2023-05-02T08:16:13.010Z,17.51
2023-05-02T08:17:13.026Z,17.51
2023-05-02T08:18:13.161Z,17.51
2023-05-02T08:19:13.186Z,17.46
2023-05-02T08:20:13.307Z,17.51
2023-05-02T08:21:13.356Z,17.46
2023-05-02T08:22:13.423Z,17.51
2023-05-02T08:23:13.499Z,17.46
2023-05-02T08:24:13.574Z,17.51
2023-05-02T08:25:13.652Z,17.51
2023-05-02T08:26:13.731Z,17.56
2023-05-02T08:27:13.844Z,17.51
2023-05-02T08:28:13.888Z,17.51
2023-05-02T08:29:13.951Z,17.51
2023-05-02T08:30:14.036Z,17.51
2023-05-02T08:31:14.153Z,17.46
2023-05-02T08:32:14.288Z,17.51
2023-05-02T08:33:14.346Z,17.51
2023-05-02T08:34:14.387Z,17.51
2023-05-02T08:35:20.885Z,17.51
2023-05-02T08:36:14.531Z,17.56
2023-05-02T08:37:14.612Z,17.51
2023-05-02T08:38:14.671Z,17.51
2023-05-02T08:39:14.763Z,17.46
2023-05-02T08:40:14.860Z,17.51
2023-05-02T08:41:14.929Z,17.51
2023-05-02T08:42:14.999Z,17.56
2023-05-02T08:43:15.072Z,17.51
2023-05-02T08:44:15.171Z,17.51
2023-05-02T08:45:16.528Z,17.46
2023-05-02T08:46:15.362Z,17.46
2023-05-02T08:47:15.505Z,17.51
2023-05-02T08:48:15.565Z,17.67
2023-05-02T08:49:15.579Z,17.67
2023-05-02T08:50:15.678Z,17.72
2023-05-02T08:51:15.751Z,17.67
2023-05-02T08:52:15.846Z,17.72
2023-05-02T08:53:15.921Z,17.67
2023-05-02T08:54:16.026Z,17.67
2023-05-02T08:55:16.073Z,17.67
2023-05-02T08:56:16.152Z,17.72
2023-05-02T08:57:16.223Z,17.67
2023-05-02T08:58:17.598Z,17.67
2023-05-02T08:59:16.385Z,17.72
2023-05-02T09:00:16.475Z,17.67
2023-05-02T09:01:16.615Z,17.72
2023-05-02T09:02:16.644Z,17.72
2023-05-02T09:03:16.719Z,17.72
2023-05-02T09:04:16.872Z,17.67
2023-05-02T09:05:16.903Z,17.67
2023-05-02T09:06:23.476Z,17.67
2023-05-02T09:07:17.038Z,17.72
2023-05-02T09:08:17.298Z,17.67
2023-05-02T09:09:18.985Z,17.72
2023-05-02T09:10:17.333Z,17.67
2023-05-02T09:11:17.378Z,17.67
2023-05-02T09:12:17.451Z,17.72
2023-05-02T09:13:17.515Z,17.72
2023-05-02T09:14:17.619Z,17.72
2023-05-02T09:15:20.588Z,17.67
2023-05-02T09:16:17.839Z,17.72
2023-05-02T09:17:17.835Z,17.72
2023-05-02T09:18:17.914Z,17.67
2023-05-02T09:19:17.989Z,17.67
2023-05-02T09:20:18.097Z,17.72
2023-05-02T09:21:20.711Z,17.67
2023-05-02T09:22:18.207Z,17.72
2023-05-02T09:23:18.302Z,17.67
2023-05-02T09:24:18.567Z,17.72
2023-05-02T09:25:18.466Z,17.62
2023-05-02T09:26:18.550Z,17.72
2023-05-02T09:27:18.641Z,17.67
2023-05-02T09:28:18.710Z,17.72
2023-05-02T09:29:18.797Z,17.72
2023-05-02T09:30:18.982Z,17.67
2023-05-02T09:31:31.331Z,17.72
2023-05-02T09:32:19.123Z,17.67
2023-05-02T09:33:19.340Z,17.67
2023-05-02T09:34:19.208Z,17.67
2023-05-02T09:35:19.311Z,17.67
2023-05-02T09:36:19.687Z,17.67
2023-05-02T09:37:25.947Z,17.67
2023-05-02T09:38:19.540Z,17.67
2023-05-02T09:39:19.617Z,17.72
2023-05-02T09:40:19.687Z,17.67
2023-05-02T09:41:19.765Z,17.51
2023-05-02T09:42:19.843Z,17.67
2023-05-02T09:43:19.928Z,17.62
2023-05-02T09:44:20.002Z,17.72
2023-05-02T09:45:20.083Z,17.67
2023-05-02T09:46:20.211Z,17.67
2023-05-02T09:47:20.261Z,17.67
2023-05-02T09:48:20.329Z,17.56
2023-05-02T09:49:20.436Z,17.51
2023-05-02T09:50:20.496Z,17.51
2023-05-02T09:51:20.575Z,17.46
2023-05-02T09:52:20.717Z,17.67
2023-05-02T09:53:20.732Z,17.67
2023-05-02T09:54:20.837Z,17.51
2023-05-02T09:55:20.915Z,17.67
2023-05-02T09:56:20.990Z,17.67
2023-05-02T09:57:21.076Z,17.51
2023-05-02T09:58:21.144Z,17.51
2023-05-02T09:59:21.228Z,17.51
2023-05-02T10:00:21.295Z,17.51
2023-05-02T10:01:21.444Z,17.51
2023-05-02T10:02:21.478Z,17.46
2023-05-02T10:03:21.558Z,17.51
2023-05-02T10:04:21.651Z,17.51
2023-05-02T10:05:21.703Z,17.51
2023-05-02T10:06:21.879Z,17.56
2023-05-02T10:07:21.866Z,17.51
2023-05-02T10:08:27.980Z,17.51
2023-05-02T10:09:22.117Z,17.46
2023-05-02T10:10:22.080Z,17.51
2023-05-02T10:11:22.147Z,17.46
2023-05-02T10:12:22.211Z,17.51
2023-05-02T10:13:22.303Z,17.51
2023-05-02T10:14:22.369Z,17.51
2023-05-02T10:15:22.457Z,17.51
2023-05-02T10:16:22.654Z,17.51
2023-05-02T10:17:22.587Z,17.51
2023-05-02T10:18:22.686Z,17.51
2023-05-02T10:19:22.766Z,17.46
2023-05-02T10:20:22.836Z,17.51
2023-05-02T10:21:22.919Z,17.51
2023-05-02T10:22:23.015Z,17.51
2023-05-02T10:23:23.087Z,17.46
2023-05-02T10:24:23.156Z,17.51
2023-05-02T10:25:23.230Z,17.46
2023-05-02T10:26:23.304Z,17.51
2023-05-02T10:27:23.392Z,17.56
2023-05-02T10:28:23.457Z,17.56
2023-05-02T10:29:23.546Z,17.51
2023-05-02T10:30:23.610Z,17.46
2023-05-02T10:31:23.831Z,17.51
2023-05-02T10:32:23.792Z,17.51
2023-05-02T10:33:23.855Z,17.51
2023-05-02T10:34:23.966Z,17.46
2023-05-02T10:35:24.040Z,17.46
2023-05-02T10:36:24.119Z,17.51
2023-05-02T10:37:24.194Z,17.51
2023-05-02T10:38:24.865Z,17.51
2023-05-02T10:39:30.512Z,17.46
2023-05-02T10:40:24.412Z,17.46
2023-05-02T10:41:24.509Z,17.46
2023-05-02T10:42:24.566Z,17.56
2023-05-02T10:43:24.634Z,17.51
2023-05-02T10:44:25.848Z,17.46
2023-05-02T10:45:24.772Z,17.51
2023-05-02T10:46:24.892Z,17.51
2023-05-02T10:47:25.017Z,17.51
2023-05-02T10:48:25.044Z,17.46
2023-05-02T10:49:25.106Z,17.46
2023-05-02T10:50:26.047Z,17.51
2023-05-02T10:51:25.264Z,17.51
2023-05-02T10:52:25.343Z,17.51
2023-05-02T10:53:25.413Z,17.51
2023-05-02T10:54:25.495Z,17.46
2023-05-02T10:55:25.572Z,17.46
2023-05-02T10:56:26.455Z,17.51
2023-05-02T10:57:25.742Z,17.51
2023-05-02T10:58:25.827Z,17.51
2023-05-02T10:59:25.905Z,17.51
2023-05-02T11:00:25.997Z,17.46
2023-05-02T11:01:26.072Z,17.51
2023-05-02T11:02:26.244Z,17.46
2023-05-02T11:03:26.357Z,17.51
2023-05-02T11:04:26.323Z,17.46
2023-05-02T11:05:26.396Z,17.51
2023-05-02T11:06:26.543Z,17.51
2023-05-02T11:07:26.550Z,17.51
2023-05-02T11:08:26.629Z,17.51
2023-05-02T11:09:26.714Z,17.51
2023-05-02T11:10:33.036Z,17.46
2023-05-02T11:11:26.863Z,17.56
2023-05-02T11:12:26.955Z,17.51
2023-05-02T11:13:27.025Z,17.51
2023-05-02T11:14:27.102Z,17.51
2023-05-02T11:15:27.201Z,17.46
2023-05-02T11:16:27.316Z,17.46
2023-05-02T11:17:27.368Z,17.46
2023-05-02T11:18:27.418Z,17.46
2023-05-02T11:19:29.092Z,17.51
2023-05-02T11:20:27.629Z,17.51
2023-05-02T11:21:27.692Z,17.51
2023-05-02T11:22:27.744Z,17.51
2023-05-02T11:23:27.844Z,17.51
2023-05-02T11:24:27.903Z,17.56
2023-05-02T11:25:29.230Z,17.51
2023-05-02T11:26:28.077Z,17.51
2023-05-02T11:27:28.157Z,17.29
2023-05-02T11:28:28.232Z,17.29
2023-05-02T11:29:28.311Z,17.29
2023-05-02T11:30:28.409Z,17.24
2023-05-02T11:31:28.562Z,17.51
2023-05-02T11:32:28.643Z,17.51
2023-05-02T11:33:28.611Z,17.24
2023-05-02T11:34:28.688Z,17.51
2023-05-02T11:35:28.767Z,17.29
2023-05-02T11:36:28.839Z,17.24
2023-05-02T11:37:29.891Z,17.29
2023-05-02T11:38:29.004Z,17.29
2023-05-02T11:39:29.082Z,17.29
2023-05-02T11:40:29.154Z,17.46
2023-05-02T11:41:35.591Z,17.29
2023-05-02T11:42:29.308Z,17.51
2023-05-02T11:43:31.891Z,17.29
2023-05-02T11:44:29.461Z,17.29
2023-05-02T11:45:29.518Z,17.35
2023-05-02T11:46:29.617Z,17.29
2023-05-02T11:47:29.816Z,17.35
2023-05-02T11:48:29.730Z,17.29
2023-05-02T11:49:29.805Z,17.35
2023-05-02T11:50:29.880Z,17.29
2023-05-02T11:51:29.965Z,17.29
2023-05-02T11:52:30.040Z,17.29
2023-05-02T11:53:30.269Z,17.29
2023-05-02T11:54:30.216Z,17.29
2023-05-02T11:55:30.308Z,17.29
2023-05-02T11:56:30.368Z,17.29
2023-05-02T11:57:30.451Z,17.51
2023-05-02T11:58:30.528Z,17.29
2023-05-02T11:59:30.618Z,17.29
2023-05-02T12:00:30.666Z,17.29
2023-05-02T12:01:30.777Z,17.29
2023-05-02T12:02:30.922Z,17.35
2023-05-02T12:03:31.061Z,17.29
2023-05-02T12:04:31.001Z,17.29
2023-05-02T12:05:31.202Z,17.35
2023-05-02T12:06:31.169Z,17.35
2023-05-02T12:07:31.232Z,17.29
2023-05-02T12:08:31.319Z,17.29
2023-05-02T12:09:31.418Z,17.35
2023-05-02T12:10:31.471Z,17.29
2023-05-02T12:11:31.550Z,17.29
2023-05-02T12:12:37.610Z,17.29
2023-05-02T12:13:31.723Z,17.29
2023-05-02T12:14:31.784Z,17.35
2023-05-02T12:15:34.359Z,17.29
2023-05-02T12:16:32.002Z,17.35
2023-05-02T12:17:32.124Z,17.29
2023-05-02T12:18:32.132Z,17.24
2023-05-02T12:19:32.219Z,17.29
2023-05-02T12:20:32.283Z,17.29
2023-05-02T12:21:32.379Z,17.35
2023-05-02T12:22:32.432Z,17.29
2023-05-02T12:23:32.886Z,17.35
2023-05-02T12:24:32.572Z,17.29
2023-05-02T12:25:32.651Z,17.29
2023-05-02T12:26:32.790Z,17.29
2023-05-02T12:27:32.857Z,17.29
2023-05-02T12:28:32.913Z,17.24
2023-05-02T12:29:32.990Z,17.24
2023-05-02T12:30:33.124Z,17.35
2023-05-02T12:31:33.265Z,17.29
2023-05-02T12:32:33.271Z,17.29
2023-05-02T12:33:33.338Z,17.29
2023-05-02T12:34:33.457Z,17.29
2023-05-02T12:35:33.519Z,17.35
2023-05-02T12:36:33.630Z,17.24
2023-05-02T12:37:33.703Z,17.29
2023-05-02T12:38:33.748Z,16.92
2023-05-02T12:39:33.816Z,17.35
2023-05-02T12:40:33.908Z,17.29
2023-05-02T12:41:33.993Z,17.29
2023-05-02T12:42:34.105Z,17.29
2023-05-02T12:43:40.135Z,17.29
2023-05-02T12:44:34.255Z,17.24
2023-05-02T12:45:34.320Z,17.29
2023-05-02T12:46:34.457Z,17.29
2023-05-02T12:47:34.536Z,16.92
2023-05-02T12:48:34.559Z,16.92
2023-05-02T12:49:34.610Z,16.70
2023-05-02T12:50:34.700Z,16.87
2023-05-02T12:51:34.963Z,17.29
2023-05-02T12:52:34.878Z,17.29
2023-05-02T12:53:34.957Z,16.92
2023-05-02T12:54:35.028Z,17.29
2023-05-02T12:55:35.107Z,16.87
2023-05-02T12:56:35.184Z,16.92
2023-05-02T12:57:35.259Z,16.87
2023-05-02T12:58:35.347Z,16.92
2023-05-02T12:59:35.426Z,16.92
2023-05-02T13:00:35.526Z,16.92
2023-05-02T13:01:35.892Z,17.29
2023-05-02T13:02:35.726Z,16.76
2023-05-02T13:03:35.793Z,16.87
2023-05-02T13:04:35.839Z,16.76
2023-05-02T13:05:35.911Z,16.92
2023-05-02T13:06:36.037Z,16.60
2023-05-02T13:07:36.060Z,16.87
2023-05-02T13:08:36.129Z,16.70
2023-05-02T13:09:36.217Z,16.49
2023-05-02T13:10:36.301Z,16.87
2023-05-02T13:11:36.352Z,16.70
2023-05-02T13:12:36.425Z,16.92
2023-05-02T13:13:36.492Z,16.60
2023-05-02T13:14:42.704Z,16.87
2023-05-02T13:15:36.649Z,16.92
2023-05-02T13:16:36.998Z,16.92
2023-05-02T13:17:36.919Z,16.92
2023-05-02T13:18:36.915Z,16.92
2023-05-02T13:19:38.758Z,16.92
2023-05-02T13:20:37.063Z,16.87
2023-05-02T13:21:43.205Z,16.92
2023-05-02T13:22:37.237Z,16.92
2023-05-02T13:23:37.286Z,16.87
2023-05-02T13:24:37.366Z,16.87
2023-05-02T13:25:37.448Z,16.92
2023-05-02T13:26:37.549Z,16.87
2023-05-02T13:27:37.610Z,16.81
2023-05-02T13:28:37.743Z,16.92
2023-05-02T13:29:37.740Z,16.87
2023-05-02T13:30:37.928Z,16.92
2023-05-02T13:31:37.946Z,16.87
2023-05-02T13:32:38.034Z,16.87
2023-05-02T13:33:38.084Z,16.87
2023-05-02T13:34:38.153Z,16.49
2023-05-02T13:35:38.261Z,16.70
2023-05-02T13:36:38.337Z,16.70
2023-05-02T13:37:38.418Z,16.87
2023-05-02T13:38:38.517Z,16.54
2023-05-02T13:39:38.654Z,16.87
2023-05-02T13:40:38.706Z,16.70
2023-05-02T13:41:38.772Z,16.70
2023-05-02T13:42:38.841Z,16.70
2023-05-02T13:43:38.942Z,16.70
2023-05-02T13:44:39.079Z,16.49
2023-05-02T13:45:39.108Z,16.87
2023-05-02T13:46:39.203Z,16.70
2023-05-02T13:47:40.182Z,16.65
2023-05-02T13:48:39.345Z,16.49
2023-05-02T13:49:39.448Z,16.65
2023-05-02T13:50:39.567Z,16.70
2023-05-02T13:51:39.598Z,16.54
2023-05-02T13:52:48.375Z,16.92
2023-05-02T13:53:39.782Z,16.70
2023-05-02T13:54:39.799Z,16.49
2023-05-02T13:55:39.925Z,16.87
2023-05-02T13:56:40.010Z,16.76
2023-05-02T13:57:40.056Z,16.70
2023-05-02T13:58:40.140Z,16.65
2023-05-02T13:59:40.220Z,16.70
2023-05-02T14:00:40.312Z,16.70
2023-05-02T14:01:41.477Z,16.70
2023-05-02T14:02:40.582Z,16.76
2023-05-02T14:03:40.621Z,16.70
2023-05-02T14:04:40.612Z,16.65
2023-05-02T14:05:40.701Z,16.70
2023-05-02T14:06:47.434Z,16.87
2023-05-02T14:07:40.934Z,11.87
2023-05-02T14:08:42.034Z,12.03
2023-05-02T14:09:41.057Z,12.03
2023-05-02T14:10:41.157Z,12.08
2023-05-02T14:11:41.257Z,12.08
2023-05-02T14:12:41.630Z,12.03
2023-05-02T14:13:41.418Z,12.08
2023-05-02T14:14:41.732Z,12.03
2023-05-02T14:15:41.622Z,12.08
2023-05-02T14:16:41.668Z,12.08
2023-05-02T14:17:41.757Z,12.08
2023-05-02T14:18:42.064Z,12.03
2023-05-02T14:19:41.916Z,12.46
2023-05-02T14:20:41.959Z,12.08
2023-05-02T14:21:42.082Z,12.08
2023-05-02T14:22:42.390Z,12.03
2023-05-02T14:23:42.303Z,12.08
2023-05-02T14:24:42.316Z,12.41
2023-05-02T14:25:42.403Z,12.19
2023-05-02T14:26:42.541Z,12.03
2023-05-02T14:27:42.602Z,12.35
2023-05-02T14:28:42.698Z,12.14
2023-05-02T14:29:42.702Z,12.30
2023-05-02T14:30:42.834Z,12.03
2023-05-02T14:31:43.330Z,12.08
2023-05-02T14:32:43.055Z,12.08
2023-05-02T14:33:43.120Z,12.08
2023-05-02T14:34:43.183Z,12.08
2023-05-02T14:35:43.274Z,12.08
2023-05-02T14:36:43.294Z,12.08
2023-05-02T14:37:50.279Z,12.03
2023-05-02T14:38:43.480Z,12.03
2023-05-02T14:39:43.545Z,11.87
2023-05-02T14:40:43.660Z,12.08
2023-05-02T14:41:43.805Z,12.08
2023-05-02T14:42:43.812Z,12.46
2023-05-02T14:43:43.878Z,12.03
2023-05-02T14:44:43.964Z,12.08
2023-05-02T14:45:44.025Z,12.41
2023-05-02T14:46:44.180Z,12.08
2023-05-02T14:47:44.226Z,12.08
2023-05-02T14:48:44.258Z,12.19
2023-05-02T14:49:44.330Z,12.46
2023-05-02T14:50:44.442Z,12.03
2023-05-02T14:51:44.482Z,12.14
2023-05-02T14:52:44.557Z,12.03
2023-05-02T14:53:44.639Z,12.03
2023-05-02T14:54:44.718Z,12.46
2023-05-02T14:55:44.789Z,12.08
2023-05-02T14:56:44.879Z,12.14
2023-05-02T14:57:44.942Z,12.03
2023-05-02T14:58:45.012Z,12.41
2023-05-02T14:59:45.139Z,12.46
2023-05-02T15:00:45.185Z,12.41
2023-05-02T15:01:45.330Z,12.41
2023-05-02T15:02:45.416Z,12.08
2023-05-02T15:04:03.511Z,12.41
2023-05-02T15:04:45.534Z,11.87
2023-05-02T15:05:45.599Z,12.03
2023-05-02T15:06:45.711Z,12.08
2023-05-02T15:07:45.733Z,12.08
2023-05-02T15:08:52.809Z,12.08
2023-05-02T15:09:45.898Z,12.03
2023-05-02T15:10:45.969Z,12.08
2023-05-02T15:11:46.030Z,12.08
2023-05-02T15:12:46.108Z,12.41
2023-05-02T15:13:46.180Z,12.08
2023-05-02T15:14:46.253Z,12.03
2023-05-02T15:15:46.312Z,12.46
2023-05-02T15:16:46.487Z,12.41
2023-05-02T15:17:46.583Z,12.41
2023-05-02T15:18:46.605Z,12.41
2023-05-02T15:19:46.674Z,12.41
2023-05-02T15:20:46.786Z,12.08
2023-05-02T15:21:46.884Z,12.46
2023-05-02T15:22:46.954Z,12.46
2023-05-02T15:23:47.050Z,12.46
2023-05-02T15:24:47.118Z,12.46
2023-05-02T15:25:47.194Z,12.03
2023-05-02T15:26:47.281Z,12.03
2023-05-02T15:27:47.357Z,12.08
2023-05-02T15:28:47.427Z,12.03
2023-05-02T15:29:47.499Z,12.14
2023-05-02T15:30:47.560Z,12.08
2023-05-02T15:31:47.678Z,12.46
2023-05-02T15:32:47.733Z,12.08
2023-05-02T15:33:47.790Z,12.08
2023-05-02T15:34:47.861Z,12.03
2023-05-02T15:35:47.928Z,12.08
2023-05-02T15:36:48.006Z,12.14
2023-05-02T15:37:48.074Z,12.08
2023-05-02T15:38:48.137Z,12.03
2023-05-02T15:41:04.498Z,12.03
2023-05-02T15:42:04.647Z,12.46
2023-05-02T15:43:04.698Z,12.03
2023-05-02T15:44:04.781Z,12.03
2023-05-02T15:45:04.847Z,12.03
2023-05-02T15:46:04.986Z,12.51
2023-05-02T15:47:05.014Z,11.98
2023-05-02T15:48:05.126Z,11.92
2023-05-02T15:49:05.163Z,12.03
2023-05-02T15:50:05.608Z,12.08
2023-05-02T15:51:05.427Z,12.08
2023-05-02T15:52:05.401Z,12.03
2023-05-02T15:53:05.602Z,12.03
2023-05-02T15:54:05.559Z,12.03
2023-05-02T15:55:05.638Z,12.46
2023-05-02T15:56:05.704Z,12.03
2023-05-02T15:57:05.770Z,12.03
2023-05-02T15:58:05.847Z,12.03
2023-05-02T15:59:05.933Z,12.51
2023-05-02T16:00:06.176Z,12.30
2023-05-02T16:01:06.137Z,12.08
2023-05-02T16:02:06.468Z,12.41
2023-05-02T16:03:06.389Z,12.03
2023-05-02T16:04:06.454Z,12.03
2023-05-02T16:05:06.475Z,12.51
2023-05-02T16:06:06.686Z,12.08
2023-05-02T16:07:06.657Z,12.46
2023-05-02T16:08:06.720Z,12.14
2023-05-02T16:09:06.781Z,12.08
2023-05-02T16:10:07.005Z,12.03
2023-05-02T16:11:13.095Z,12.03
2023-05-02T16:12:07.027Z,12.08
2023-05-02T16:13:07.178Z,11.87
2023-05-02T16:14:07.211Z,12.03
2023-05-02T16:15:07.298Z,12.08
2023-05-02T16:16:07.458Z,11.98
2023-05-02T16:17:07.457Z,12.08
2023-05-02T16:18:07.582Z,12.08
2023-05-02T16:19:07.592Z,12.08
2023-05-02T16:20:07.702Z,12.08
2023-05-02T16:21:07.741Z,12.08
2023-05-02T16:22:07.814Z,11.92
2023-05-02T16:23:07.888Z,12.08
2023-05-02T16:24:07.947Z,12.03
2023-05-02T16:25:08.023Z,12.08
2023-05-02T16:26:08.108Z,11.98
2023-05-02T16:27:08.175Z,12.08
2023-05-02T16:28:08.255Z,12.03
2023-05-02T16:29:08.342Z,12.08
2023-05-02T16:30:08.393Z,12.03
2023-05-02T16:31:08.532Z,12.46
2023-05-02T16:32:08.531Z,12.08
2023-05-02T16:33:08.663Z,12.03
2023-05-02T16:34:08.688Z,12.03
2023-05-02T16:35:08.746Z,12.03
2023-05-02T16:36:08.811Z,12.08
2023-05-02T16:37:08.878Z,12.03
2023-05-02T16:38:08.949Z,12.03
2023-05-02T16:39:09.012Z,12.08
2023-05-02T16:40:09.079Z,12.08
2023-05-02T16:41:09.152Z,12.14
2023-05-02T16:42:16.147Z,12.46
2023-05-02T16:43:09.320Z,12.08
2023-05-02T16:44:09.380Z,12.03
2023-05-02T16:45:09.449Z,12.46
2023-05-02T16:46:09.514Z,11.92
2023-05-02T16:47:09.843Z,12.03
2023-05-02T16:48:09.698Z,12.03
2023-05-02T16:49:09.749Z,12.08
2023-05-02T16:50:09.810Z,12.03
2023-05-02T16:51:09.899Z,11.87
2023-05-02T16:52:09.981Z,12.08
2023-05-02T16:53:10.065Z,12.08
2023-05-02T16:54:10.129Z,11.87
2023-05-02T16:55:10.200Z,12.08
2023-05-02T16:56:10.276Z,12.03
2023-05-02T16:57:10.342Z,12.08
2023-05-02T16:58:10.425Z,12.03
2023-05-02T16:59:10.501Z,12.03
2023-05-02T17:00:10.582Z,12.03
2023-05-02T17:01:10.697Z,12.14
2023-05-02T17:02:10.760Z,12.08
2023-05-02T17:03:10.863Z,12.03
2023-05-02T17:04:10.866Z,12.08
2023-05-02T17:05:11.295Z,12.08
2023-05-02T17:06:11.079Z,12.08
2023-05-02T17:07:11.142Z,12.03
2023-05-02T17:08:11.199Z,11.60
2023-05-02T17:09:11.274Z,12.08
2023-05-02T17:10:11.333Z,12.03
2023-05-02T17:11:11.394Z,11.87
2023-05-02T17:12:11.467Z,12.46
2023-05-02T17:13:18.138Z,12.41
2023-05-02T17:14:11.610Z,12.08
2023-05-02T17:15:11.697Z,12.03
2023-05-02T17:16:11.766Z,12.03
2023-05-02T17:17:11.872Z,11.66
2023-05-02T17:18:12.005Z,12.08
2023-05-02T17:19:11.993Z,12.08
2023-05-02T17:20:12.094Z,12.08
2023-05-02T17:21:12.182Z,12.03
2023-05-02T17:22:12.264Z,12.03
2023-05-02T17:23:12.312Z,12.03
2023-05-02T17:24:12.374Z,11.98
2023-05-02T17:25:12.451Z,12.03
2023-05-02T17:26:12.533Z,12.08
2023-05-02T17:27:12.621Z,12.08
2023-05-02T17:28:12.670Z,12.08
2023-05-02T17:29:12.739Z,12.08
2023-05-02T17:30:12.829Z,12.08
2023-05-02T17:31:13.020Z,12.03
2023-05-02T17:32:13.014Z,12.03
2023-05-02T17:33:13.185Z,12.08
2023-05-02T17:34:13.218Z,12.08
2023-05-02T17:35:13.272Z,11.92
2023-05-02T17:36:13.336Z,12.08
2023-05-02T17:37:13.403Z,12.08
2023-05-02T17:38:14.141Z,12.03
2023-05-02T17:39:13.561Z,12.03
2023-05-02T17:40:13.637Z,12.08
2023-05-02T17:41:13.714Z,11.82
2023-05-02T17:42:13.782Z,11.98
2023-05-02T17:43:13.849Z,12.03
2023-05-02T17:44:20.448Z,11.98
2023-05-02T17:45:14.046Z,12.08
2023-05-02T17:46:14.131Z,12.03
2023-05-02T17:47:14.179Z,12.08
2023-05-02T17:48:14.293Z,11.66
2023-05-02T17:49:14.327Z,11.92
2023-05-02T17:50:14.411Z,12.08
2023-05-02T17:51:14.486Z,11.87
2023-05-02T17:52:14.549Z,12.08
2023-05-02T17:53:14.597Z,11.76
2023-05-02T17:54:14.663Z,12.03
2023-05-02T17:55:14.880Z,11.92
2023-05-02T17:56:14.797Z,12.03
2023-05-02T17:57:14.898Z,12.08
2023-05-02T17:58:14.959Z,12.03
2023-05-02T17:59:15.031Z,12.03
2023-05-02T18:00:15.094Z,12.08
2023-05-02T18:01:15.231Z,12.03
2023-05-02T18:02:15.253Z,12.08
2023-05-02T18:03:15.424Z,12.08
2023-05-02T18:04:15.452Z,11.87
2023-05-02T18:05:15.492Z,12.08
2023-05-02T18:06:15.599Z,12.08
2023-05-02T18:07:15.621Z,12.19
2023-05-02T18:08:15.697Z,12.03
2023-05-02T18:09:15.795Z,12.08
2023-05-02T18:10:15.877Z,12.03
2023-05-02T18:11:15.923Z,12.03
2023-05-02T18:12:16.018Z,12.08
2023-05-02T18:13:16.111Z,12.03
2023-05-02T18:15:14.097Z,12.03
2023-05-02T18:16:15.157Z,12.03
2023-05-02T18:17:16.166Z,12.08
2023-05-02T18:18:15.316Z,12.03
2023-05-02T18:19:15.351Z,12.03
2023-05-02T18:20:15.404Z,12.08
2023-05-02T18:21:15.504Z,12.03
2023-05-02T18:22:16.368Z,12.03
2023-05-02T18:23:15.650Z,11.98
2023-05-02T18:24:15.794Z,12.03
2023-05-02T18:25:15.780Z,12.08
2023-05-02T18:26:15.866Z,12.08
2023-05-02T18:27:15.935Z,12.03
2023-05-02T18:28:16.009Z,11.98
2023-05-02T18:29:16.075Z,12.03
2023-05-02T18:30:16.141Z,12.08
2023-05-02T18:31:16.338Z,11.87
2023-05-02T18:32:16.289Z,12.03
2023-05-02T18:33:16.425Z,12.08
2023-05-02T18:34:16.447Z,11.87
2023-05-02T18:35:16.534Z,11.87
2023-05-02T18:36:16.592Z,12.08
2023-05-02T18:37:16.653Z,12.03
2023-05-02T18:38:16.724Z,12.08
2023-05-02T18:39:16.794Z,12.03
2023-05-02T18:40:16.856Z,11.92
2023-05-02T18:41:16.921Z,11.87
2023-05-02T18:42:16.991Z,12.03
2023-05-02T18:43:17.064Z,12.08
2023-05-02T18:44:17.122Z,11.87
2023-05-02T18:45:23.692Z,11.87
2023-05-02T18:46:17.346Z,11.87
2023-05-02T18:47:17.331Z,11.87
2023-05-02T18:48:17.397Z,11.82
2023-05-02T18:49:17.471Z,12.08
2023-05-02T18:50:17.524Z,12.08
2023-05-02T18:51:17.587Z,12.03
2023-05-02T18:52:17.711Z,12.08
2023-05-02T18:53:17.764Z,11.87
2023-05-02T18:54:17.844Z,12.08
2023-05-02T18:55:18.640Z,11.87
2023-05-02T18:56:18.640Z,12.08
2023-05-02T18:57:18.053Z,11.82
2023-05-02T18:58:18.641Z,11.87
2023-05-02T18:59:18.211Z,11.71
2023-05-02T19:00:18.292Z,12.14
2023-05-02T19:01:18.421Z,12.08
2023-05-02T19:02:18.569Z,12.03
2023-05-02T19:03:18.632Z,12.03
2023-05-02T19:04:18.645Z,12.08
2023-05-02T19:05:18.696Z,11.87
2023-05-02T19:06:18.856Z,11.82
2023-05-02T19:07:18.865Z,11.87
2023-05-02T19:08:18.944Z,12.08
2023-05-02T19:09:19.010Z,12.08
2023-05-02T19:10:19.104Z,12.14
2023-05-02T19:11:19.173Z,11.87
2023-05-02T19:12:19.228Z,12.08
2023-05-02T19:13:19.333Z,12.08
2023-05-02T19:14:19.406Z,11.82
2023-05-02T19:15:19.467Z,11.98
2023-05-02T19:16:26.115Z,11.87
2023-05-02T19:17:19.629Z,11.87
2023-05-02T19:18:19.759Z,11.92
2023-05-02T19:19:19.796Z,11.87
2023-05-02T19:20:19.875Z,12.03
2023-05-02T19:21:19.943Z,11.92
2023-05-02T19:22:20.057Z,12.08
2023-05-02T19:23:20.943Z,11.82
2023-05-02T19:24:20.139Z,12.03
2023-05-02T19:25:20.192Z,11.87
2023-05-02T19:26:20.303Z,11.87
2023-05-02T19:27:20.351Z,12.08